Time;durP1;ratioP1;P1;durP2;ratioP2;P2;SDS_P1;SDS_P2;PMS_P1;PMS_P2;Temp;Humidity;BMP_temperature;BMP_pressure;BME280_temperature;BME280_humidity;BME280_pressure;Samples;Min_cycle;Max_cycle;Signal;HPM_P1;HPM_P2
2022/09/18 00:00:02;;;;;;;8.30;1.75;;;11.30;99.90;;;;;;5070106;28;20020;-78
2022/09/18 00:02:28;;;;;;;11.60;1.42;;;11.30;99.90;;;;;;5084779;28;20059;-78
2022/09/18 00:04:53;;;;;;;8.52;2.10;;;11.20;99.90;;;;;;5069594;28;20408;-79
2022/09/18 00:07:19;;;;;;;12.63;1.92;;;11.20;99.90;;;;;;5052979;28;20036;-77
2022/09/18 00:09:45;;;;;;;10.82;1.70;;;11.10;99.90;;;;;;5070395;28;20381;-77
2022/09/18 00:12:10;;;;;;;10.45;2.03;;;11.10;99.90;;;;;;5049330;28;20417;-78
2022/09/18 00:14:36;;;;;;;14.40;2.45;;;11.10;99.90;;;;;;5065132;28;20059;-77
2022/09/18 00:17:02;;;;;;;13.90;1.63;;;11.00;99.90;;;;;;5047092;28;20016;-78
2022/09/18 00:19:28;;;;;;;20.48;2.42;;;11.00;99.90;;;;;;5068094;28;20036;-77
2022/09/18 00:21:53;;;;;;;13.13;2.38;;;10.90;99.90;;;;;;5070781;28;20114;-77
2022/09/18 00:24:22;;;;;;;17.85;1.90;;;10.90;99.90;;;;;;5072157;28;20438;-78
2022/09/18 00:26:48;;;;;;;11.27;2.63;;;10.90;99.90;;;;;;5069528;28;20039;-78
2022/09/18 00:29:14;;;;;;;8.57;1.45;;;10.90;99.90;;;;;;5047292;28;20309;-77
2022/09/18 00:31:41;;;;;;;12.57;2.00;;;10.90;99.90;;;;;;5070228;28;20105;-77
2022/09/18 00:34:11;;;;;;;19.10;2.88;;;10.90;99.90;;;;;;5070806;28;20027;-78
2022/09/18 00:36:38;;;;;;;17.42;2.58;;;10.90;99.90;;;;;;5046838;28;20025;-76
2022/09/18 00:39:05;;;;;;;6.65;1.45;;;10.90;99.90;;;;;;5049297;28;20021;-79
2022/09/18 00:41:33;;;;;;;17.67;2.78;;;10.90;99.90;;;;;;5048026;28;20396;-77
2022/09/18 00:44:21;;;;;;;16.45;2.28;;;10.90;99.90;;;;;;5070008;28;20278;-77
2022/09/18 00:46:47;;;;;;;9.32;1.75;;;10.90;99.90;;;;;;5081480;28;20028;-77
2022/09/18 00:49:17;;;;;;;15.63;2.08;;;10.90;99.90;;;;;;5070056;28;20028;-77
2022/09/18 00:51:46;;;;;;;20.88;2.60;;;11.00;99.90;;;;;;5043818;28;20017;-78
2022/09/18 00:54:29;;;;;;;14.55;2.10;;;11.00;99.90;;;;;;5056799;28;20070;-78
2022/09/18 00:57:10;;;;;;;13.80;2.38;;;11.00;99.90;;;;;;5078439;28;20025;-77
2022/09/18 00:59:39;;;;;;;13.05;2.08;;;11.00;99.90;;;;;;5064894;28;20118;-77
2022/09/18 01:02:05;;;;;;;9.55;2.03;;;11.00;99.90;;;;;;5051907;28;20090;-77
2022/09/18 01:04:31;;;;;;;10.07;1.60;;;11.00;99.90;;;;;;5048869;28;20029;-78
2022/09/18 01:07:12;;;;;;;8.30;1.50;;;11.10;99.90;;;;;;5052804;28;20029;-77
2022/09/18 01:09:44;;;;;;;;;;;11.00;99.90;;;;;;5049997;28;20489;-77
2022/09/18 01:12:30;;;;;;;11.48;1.77;;;11.00;99.90;;;;;;5074796;28;19908;-76
2022/09/18 01:15:17;;;;;;;10.55;1.98;;;11.00;99.90;;;;;;5075501;28;20096;-78
2022/09/18 01:17:56;;;;;;;12.85;1.98;;;11.10;99.90;;;;;;5057128;28;20035;-77
2022/09/18 01:20:46;;;;;;;18.95;2.45;;;11.10;99.90;;;;;;5059946;28;20055;-78
2022/09/18 01:23:24;;;;;;;9.98;1.90;;;11.10;99.90;;;;;;5052682;28;20040;-75
2022/09/18 01:26:25;;;;;;;12.20;2.50;;;11.10;99.90;;;;;;5052535;28;20094;-78
2022/09/18 01:29:00;;;;;;;8.20;1.42;;;11.10;99.90;;;;;;5088000;28;20029;-77
2022/09/18 01:31:33;;;;;;;15.75;1.88;;;11.10;99.90;;;;;;5048934;28;20029;-77
2022/09/18 01:34:27;;;;;;;9.65;2.10;;;11.10;99.90;;;;;;5064301;28;20031;-77
2022/09/18 01:37:01;;;;;;;11.13;2.40;;;11.10;99.90;;;;;;5065796;28;20366;-77
2022/09/18 01:39:36;;;;;;;11.45;2.40;;;11.00;99.90;;;;;;5051538;28;20055;-77
2022/09/18 01:42:07;;;;;;;12.30;1.92;;;11.00;99.90;;;;;;5068539;28;20493;-77
2022/09/18 01:44:34;;;;;;;6.30;1.60;;;10.90;99.90;;;;;;5057729;28;20056;-78
2022/09/18 01:47:04;;;;;;;11.88;2.67;;;10.90;99.90;;;;;;5052275;28;20040;-79
2022/09/18 01:49:37;;;;;;;11.70;2.17;;;10.90;99.90;;;;;;5069123;28;20024;-78
2022/09/18 01:52:09;;;;;;;10.48;2.33;;;10.90;99.90;;;;;;5046725;28;20109;-78
2022/09/18 01:54:39;;;;;;;12.95;2.30;;;10.90;99.90;;;;;;5050877;28;20020;-78
2022/09/18 01:57:22;;;;;;;7.18;1.70;;;10.80;99.90;;;;;;5049602;28;20408;-78
2022/09/18 02:00:10;;;;;;;8.38;1.60;;;10.80;99.90;;;;;;5060557;28;20032;-78
2022/09/18 02:02:51;;;;;;;15.38;2.13;;;10.80;99.90;;;;;;5065841;28;20079;-78
2022/09/18 02:05:28;;;;;;;8.25;1.60;;;10.80;99.90;;;;;;5079303;28;20029;-77
2022/09/18 02:08:19;;;;;;;10.55;1.60;;;10.70;99.90;;;;;;5067043;28;20119;-78
2022/09/18 02:10:54;;;;;;;12.05;1.85;;;10.70;99.90;;;;;;5068656;28;20050;-77
2022/09/18 02:13:25;;;;;;;17.08;2.55;;;10.70;99.90;;;;;;5066345;28;20054;-78
2022/09/18 02:15:57;;;;;;;13.63;1.90;;;10.60;99.90;;;;;;5048931;28;20024;-78
2022/09/18 02:18:28;;;;;;;24.98;2.33;;;10.60;99.90;;;;;;5046001;28;20079;-78
2022/09/18 02:20:55;;;;;;;;;;;10.60;99.90;;;;;;5070161;28;20029;-78
2022/09/18 02:23:22;;;;;;;15.50;1.95;;;10.60;99.90;;;;;;5068259;28;19939;-78
2022/09/18 02:25:52;;;;;;;10.98;1.48;;;10.60;99.90;;;;;;5044701;28;20041;-79
2022/09/18 02:28:21;;;;;;;11.23;2.22;;;10.60;99.90;;;;;;5067601;28;20032;-77
2022/09/18 02:30:47;;;;;;;14.05;1.80;;;10.60;99.90;;;;;;5055603;28;20033;-78
2022/09/18 02:33:33;;;;;;;11.55;2.20;;;10.60;99.90;;;;;;5083759;28;20028;-77
2022/09/18 02:36:11;;;;;;;12.70;2.20;;;10.70;99.90;;;;;;5068126;28;20052;-79
2022/09/18 02:39:01;;;;;;;11.07;2.00;;;10.70;99.90;;;;;;5085539;28;20020;-77
2022/09/18 02:41:35;;;;;;;16.05;2.58;;;10.60;99.90;;;;;;5067746;28;20032;-77
2022/09/18 02:44:17;;;;;;;12.90;2.50;;;10.70;99.90;;;;;;5069419;28;20029;-78
2022/09/18 02:47:04;;;;;;;12.85;2.25;;;10.70;99.90;;;;;;5045407;28;20033;-77
2022/09/18 02:49:48;;;;;;;13.80;2.72;;;10.70;99.90;;;;;;5043080;28;20028;-77
2022/09/18 02:52:23;;;;;;;17.92;2.83;;;10.70;99.90;;;;;;5042631;28;20053;-78
2022/09/18 02:54:56;;;;;;;10.80;2.17;;;10.70;99.90;;;;;;5045160;28;20422;-78
2022/09/18 02:57:54;;;;;;;8.20;1.65;;;10.70;99.90;;;;;;5045821;28;20027;-78
2022/09/18 03:00:20;;;;;;;14.63;1.80;;;10.70;99.90;;;;;;5068023;28;20035;-77
2022/09/18 03:02:46;;;;;;;10.30;2.88;;;10.60;99.90;;;;;;5042145;28;20025;-77
2022/09/18 03:05:13;;;;;;;11.15;1.83;;;10.60;99.90;;;;;;5041245;28;20060;-79
2022/09/18 03:07:39;;;;;;;10.77;1.85;;;10.60;99.90;;;;;;5046146;28;20556;-77
2022/09/18 03:10:05;;;;;;;8.43;1.88;;;10.60;99.90;;;;;;5070212;28;20143;-78
2022/09/18 03:12:31;;;;;;;11.48;1.65;;;10.60;99.90;;;;;;5052345;28;20016;-77
2022/09/18 03:14:57;;;;;;;10.85;1.55;;;10.60;99.90;;;;;;5071890;28;20078;-77
2022/09/18 03:17:22;;;;;;;7.72;1.67;;;10.60;99.90;;;;;;5055711;28;20089;-78
2022/09/18 03:19:48;;;;;;;9.80;1.50;;;10.60;99.90;;;;;;5082891;28;20029;-77
2022/09/18 03:22:14;;;;;;;8.30;1.50;;;10.70;99.90;;;;;;5051658;28;20059;-78
2022/09/18 03:24:39;;;;;;;13.07;1.92;;;10.60;99.90;;;;;;5052768;28;20071;-77
2022/09/18 03:27:05;;;;;;;11.18;1.50;;;10.60;99.90;;;;;;5071344;28;20025;-78
2022/09/18 03:29:31;;;;;;;9.60;1.45;;;10.60;99.90;;;;;;5069085;28;20146;-77
2022/09/18 03:31:57;;;;;;;8.77;1.33;;;10.50;99.90;;;;;;5070860;28;20099;-78
2022/09/18 03:34:23;;;;;;;9.40;1.35;;;10.50;99.90;;;;;;5072335;28;20028;-77
2022/09/18 03:36:49;;;;;;;7.53;1.73;;;10.50;99.90;;;;;;5051518;28;20710;-77
2022/09/18 03:39:14;;;;;;;8.88;1.40;;;10.50;99.90;;;;;;5075402;28;20051;-78
2022/09/18 03:41:40;;;;;;;9.52;1.58;;;10.50;99.90;;;;;;5069143;28;20052;-78
2022/09/18 03:44:06;;;;;;;11.00;1.90;;;10.40;99.90;;;;;;5070340;28;20024;-77
2022/09/18 03:46:31;;;;;;;9.68;1.85;;;10.40;99.90;;;;;;5053165;28;20627;-78
2022/09/18 03:48:57;;;;;;;6.80;1.35;;;10.40;99.90;;;;;;5053225;28;20473;-78
2022/09/18 03:51:23;;;;;;;12.70;1.98;;;10.40;99.90;;;;;;5069433;28;20412;-78
2022/09/18 03:53:50;;;;;;;7.75;1.45;;;10.30;99.90;;;;;;5071489;28;20021;-77
2022/09/18 03:56:16;;;;;;;8.70;1.48;;;10.30;99.90;;;;;;5054395;28;20020;-78
2022/09/18 03:58:42;;;;;;;12.27;2.28;;;10.30;99.90;;;;;;5071171;28;20108;-78
2022/09/18 04:01:08;;;;;;;9.02;1.60;;;10.30;99.90;;;;;;5047242;28;20120;-77
2022/09/18 04:03:34;;;;;;;6.72;1.20;;;10.30;99.90;;;;;;5047044;28;20078;-77
2022/09/18 04:06:01;;;;;;;5.97;1.42;;;10.30;99.90;;;;;;5070956;28;20491;-79
2022/09/18 04:08:27;;;;;;;10.38;1.50;;;10.30;99.90;;;;;;5051840;28;20028;-78
2022/09/18 04:10:52;;;;;;;9.27;1.60;;;10.30;99.90;;;;;;5070492;28;20028;-77
2022/09/18 04:13:19;;;;;;;13.18;1.60;;;10.30;99.90;;;;;;5071864;28;20035;-78
2022/09/18 04:15:48;;;;;;;9.02;1.35;;;10.30;99.90;;;;;;5047623;28;20046;-78
2022/09/18 04:18:17;;;;;;;11.57;1.98;;;10.30;99.90;;;;;;5069382;28;20016;-77
2022/09/18 04:20:42;;;;;;;9.02;1.65;;;10.30;99.90;;;;;;5069350;28;20056;-78
2022/09/18 04:23:10;;;;;;;8.27;1.70;;;10.30;99.90;;;;;;5065955;28;20395;-78
2022/09/18 04:25:37;;;;;;;8.38;1.67;;;10.30;99.90;;;;;;5050207;28;20483;-77
2022/09/18 04:28:02;;;;;;;11.15;1.90;;;10.30;99.90;;;;;;5070936;28;20033;-78
2022/09/18 04:30:28;;;;;;;8.15;1.42;;;10.30;99.90;;;;;;5048893;28;20028;-77
2022/09/18 04:32:54;;;;;;;10.90;2.00;;;10.40;99.90;;;;;;5049282;28;20029;-78
2022/09/18 04:35:19;;;;;;;8.82;1.27;;;10.30;99.90;;;;;;5072238;28;20037;-77
2022/09/18 04:37:45;;;;;;;14.00;1.60;;;10.40;99.90;;;;;;5048438;28;20118;-78
2022/09/18 04:40:11;;;;;;;11.57;1.27;;;10.40;99.90;;;;;;5070355;28;20575;-76
2022/09/18 04:42:36;;;;;;;7.15;1.33;;;10.30;99.90;;;;;;5068876;28;20055;-77
2022/09/18 04:45:03;;;;;;;10.23;1.55;;;10.30;99.90;;;;;;5047277;28;20020;-78
2022/09/18 04:47:29;;;;;;;8.68;1.85;;;10.30;99.90;;;;;;5071230;28;20504;-77
2022/09/18 04:49:54;;;;;;;8.23;1.88;;;10.20;99.90;;;;;;5048805;28;20039;-76
2022/09/18 04:52:20;;;;;;;6.80;2.13;;;10.20;99.90;;;;;;5070240;28;20393;-76
2022/09/18 04:54:46;;;;;;;8.23;1.20;;;10.20;99.90;;;;;;5070737;28;20032;-78
2022/09/18 04:57:11;;;;;;;10.05;1.65;;;10.20;99.90;;;;;;5068079;28;20378;-78
2022/09/18 04:59:37;;;;;;;5.63;1.30;;;10.20;99.90;;;;;;5069790;28;20384;-78
2022/09/18 05:02:03;;;;;;;10.02;1.40;;;10.10;99.90;;;;;;5047843;28;20431;-78
2022/09/18 05:04:28;;;;;;;5.75;1.42;;;10.20;99.90;;;;;;5071761;28;20475;-78
2022/09/18 05:06:54;;;;;;;9.15;1.50;;;10.10;99.90;;;;;;5052710;28;20407;-78
2022/09/18 05:09:20;;;;;;;10.10;1.83;;;10.20;99.90;;;;;;5071841;28;20380;-78
2022/09/18 05:11:45;;;;;;;11.07;1.67;;;10.20;99.90;;;;;;5042510;28;20025;-76
2022/09/18 05:14:11;;;;;;;7.53;1.52;;;10.20;99.90;;;;;;5066204;28;20050;-77
2022/09/18 05:16:37;;;;;;;7.00;1.20;;;10.20;99.90;;;;;;5070024;28;20510;-76
2022/09/18 05:19:03;;;;;;;11.15;1.77;;;10.20;99.90;;;;;;5051195;28;20047;-77
2022/09/18 05:21:28;;;;;;;10.30;1.90;;;10.30;99.90;;;;;;5069242;28;20020;-77
2022/09/18 05:23:54;;;;;;;10.23;1.80;;;10.30;99.90;;;;;;5049842;28;20465;-76
2022/09/18 05:26:20;;;;;;;6.45;1.63;;;10.30;99.90;;;;;;5068874;28;20045;-77
2022/09/18 05:28:49;;;;;;;12.43;2.38;;;10.30;99.90;;;;;;5050939;28;20028;-77
2022/09/18 05:31:15;;;;;;;13.63;2.17;;;10.30;99.90;;;;;;5069330;28;20017;-76
2022/09/18 05:33:41;;;;;;;15.48;2.38;;;10.30;99.90;;;;;;5052376;28;20059;-77
2022/09/18 05:36:07;;;;;;;12.55;1.95;;;10.30;99.90;;;;;;5071190;28;20133;-78
2022/09/18 05:38:33;;;;;;;11.32;1.73;;;10.30;99.90;;;;;;5063437;28;20400;-77
2022/09/18 05:41:00;;;;;;;10.77;1.75;;;10.20;99.90;;;;;;5064271;28;20029;-77
2022/09/18 05:43:26;;;;;;;12.43;2.00;;;10.20;99.90;;;;;;5067372;28;20044;-78
2022/09/18 05:45:52;;;;;;;14.95;2.28;;;10.20;99.90;;;;;;5061086;28;20572;-77
2022/09/18 05:48:18;;;;;;;15.70;2.30;;;10.20;99.90;;;;;;5043223;28;20147;-77
2022/09/18 05:50:44;;;;;;;11.85;2.10;;;10.20;99.90;;;;;;5048877;28;20028;-75
2022/09/18 05:53:12;;;;;;;8.05;1.58;;;10.20;99.90;;;;;;5046323;28;20028;-76
2022/09/18 05:55:38;;;;;;;11.63;1.83;;;10.20;99.90;;;;;;5063321;28;20024;-77
2022/09/18 05:58:06;;;;;;;8.52;1.80;;;10.20;99.90;;;;;;5052980;28;20089;-77
2022/09/18 06:00:34;;;;;;;8.48;2.03;;;10.20;99.90;;;;;;5044976;28;20388;-78
2022/09/18 06:03:11;;;;;;;6.78;1.60;;;10.30;99.90;;;;;;5043984;28;20029;-78
2022/09/18 06:05:37;;;;;;;15.10;2.55;;;10.30;99.90;;;;;;5067981;28;20028;-77
2022/09/18 06:08:11;;;;;;;11.23;2.03;;;10.30;99.90;;;;;;5049572;28;20362;-76
2022/09/18 06:10:38;;;;;;;10.13;1.80;;;10.30;99.90;;;;;;5069405;28;20399;-78
2022/09/18 06:13:08;;;;;;;12.73;2.17;;;10.30;99.90;;;;;;5069008;28;20029;-77
2022/09/18 06:15:34;;;;;;;7.85;2.13;;;10.30;99.90;;;;;;5057212;28;20028;-77
2022/09/18 06:18:00;;;;;;;7.90;1.92;;;10.30;99.90;;;;;;5070183;28;20020;-76
2022/09/18 06:20:26;;;;;;;9.95;1.70;;;10.30;99.90;;;;;;5067800;28;20445;-78
2022/09/18 06:22:52;;;;;;;7.43;1.67;;;10.30;99.90;;;;;;5067611;28;20115;-79
2022/09/18 06:25:20;;;;;;;14.45;2.13;;;10.30;99.90;;;;;;5066288;28;20045;-77
2022/09/18 06:27:52;;;;;;;11.85;1.75;;;10.30;99.90;;;;;;5052730;28;20363;-77
2022/09/18 06:30:18;;;;;;;10.90;2.00;;;10.40;99.90;;;;;;5051202;28;20029;-77
2022/09/18 06:32:43;;;;;;;7.32;1.90;;;10.40;99.90;;;;;;5069308;28;20020;-78
2022/09/18 06:35:09;;;;;;;8.82;1.58;;;10.30;99.90;;;;;;5062033;28;20032;-77
2022/09/18 06:37:35;;;;;;;6.60;1.70;;;10.30;99.90;;;;;;5069984;28;20113;-77
2022/09/18 06:40:01;;;;;;;7.28;1.33;;;10.30;99.90;;;;;;5047810;28;20024;-77
2022/09/18 06:42:26;;;;;;;10.32;1.65;;;10.50;99.90;;;;;;5051455;28;20020;-77
2022/09/18 06:44:53;;;;;;;10.57;1.92;;;10.60;99.90;;;;;;5070144;28;20562;-80
2022/09/18 06:47:18;;;;;;;10.93;2.22;;;10.60;99.90;;;;;;5045190;28;20369;-76
2022/09/18 06:49:44;;;;;;;6.68;1.80;;;10.50;99.90;;;;;;5048701;28;20028;-78
2022/09/18 06:52:10;;;;;;;8.50;1.77;;;10.40;99.90;;;;;;5039362;28;20624;-79
2022/09/18 06:54:35;;;;;;;12.57;1.92;;;10.30;99.90;;;;;;5052056;28;20025;-78
2022/09/18 06:57:01;;;;;;;8.98;1.85;;;10.30;99.90;;;;;;5067479;28;20032;-78
2022/09/18 06:59:27;;;;;;;7.55;1.55;;;10.30;99.90;;;;;;5054565;28;20040;-77
2022/09/18 07:01:54;;;;;;;9.77;1.73;;;10.30;99.90;;;;;;5073918;28;20047;-78
2022/09/18 07:04:20;;;;;;;8.73;1.50;;;10.30;99.90;;;;;;5070079;28;20468;-79
2022/09/18 07:06:46;;;;;;;5.72;1.77;;;10.50;99.90;;;;;;5063438;28;20032;-79
2022/09/18 07:09:11;;;;;;;10.80;1.55;;;10.60;99.90;;;;;;5048753;28;20029;-79
2022/09/18 07:11:38;;;;;;;9.02;1.58;;;10.70;99.90;;;;;;5068863;28;20508;-78
2022/09/18 07:14:06;;;;;;;13.25;2.25;;;10.70;99.90;;;;;;5062553;28;20017;-78
2022/09/18 07:16:32;;;;;;;8.60;1.73;;;10.60;99.90;;;;;;5067285;28;20495;-79
2022/09/18 07:18:58;;;;;;;11.20;1.80;;;10.60;99.90;;;;;;5068417;28;20035;-78
2022/09/18 07:21:23;;;;;;;10.57;1.65;;;10.60;99.90;;;;;;5045191;28;20191;-79
2022/09/18 07:23:49;;;;;;;6.22;1.55;;;10.50;99.90;;;;;;5047021;28;20040;-78
2022/09/18 07:26:15;;;;;;;9.10;1.80;;;10.60;99.90;;;;;;5063204;28;20035;-78
2022/09/18 07:28:40;;;;;;;8.70;1.63;;;10.70;99.90;;;;;;5052882;28;20021;-78
2022/09/18 07:31:06;;;;;;;6.63;1.20;;;10.80;99.90;;;;;;5048359;28;20024;-78
2022/09/18 07:33:32;;;;;;;10.55;1.55;;;10.90;99.90;;;;;;5068691;28;20263;-78
2022/09/18 07:36:02;;;;;;;10.68;1.77;;;10.90;99.90;;;;;;5048878;28;20038;-78
2022/09/18 07:38:28;;;;;;;9.73;1.70;;;10.80;99.90;;;;;;5050705;28;20024;-78
2022/09/18 07:40:54;;;;;;;8.68;1.75;;;10.80;99.90;;;;;;5046217;28;20263;-77
2022/09/18 07:43:20;;;;;;;7.25;1.42;;;10.80;99.90;;;;;;5066427;28;20105;-78
2022/09/18 07:45:46;;;;;;;8.40;1.63;;;10.80;99.90;;;;;;5044712;28;20537;-77
2022/09/18 07:48:12;;;;;;;8.48;1.75;;;10.80;99.90;;;;;;5072987;28;20044;-77
2022/09/18 07:50:38;;;;;;;10.40;1.35;;;10.90;99.90;;;;;;5058636;28;20182;-78
2022/09/18 07:53:06;;;;;;;10.07;1.85;;;11.10;99.90;;;;;;5067857;28;20032;-78
2022/09/18 07:55:34;;;;;;;8.45;1.42;;;11.10;99.90;;;;;;5053930;28;20024;-78
2022/09/18 07:58:01;;;;;;;8.63;1.40;;;11.20;99.90;;;;;;5048308;28;20039;-77
2022/09/18 08:00:32;;;;;;;7.35;1.25;;;11.20;99.90;;;;;;5072647;28;20024;-79
2022/09/18 08:03:10;;;;;;;6.60;1.50;;;11.20;99.90;;;;;;5048115;28;20021;-77
2022/09/18 08:05:36;;;;;;;10.30;1.80;;;11.10;99.90;;;;;;5079726;28;20503;-81
2022/09/18 08:08:13;;;;;;;10.25;1.70;;;11.10;99.90;;;;;;5086785;28;20089;-78
2022/09/18 08:10:41;;;;;;;9.68;1.48;;;11.20;99.90;;;;;;5054778;28;20115;-76
2022/09/18 08:13:07;;;;;;;7.28;1.52;;;11.40;99.90;;;;;;5072071;28;20024;-78
2022/09/18 08:15:35;;;;;;;10.43;2.65;;;11.50;99.90;;;;;;5052575;28;20021;-77
2022/09/18 08:18:01;;;;;;;8.20;2.05;;;11.40;99.90;;;;;;5074115;28;20108;-77
2022/09/18 08:20:26;;;;;;;10.35;1.88;;;11.20;99.90;;;;;;5071573;28;20119;-77
2022/09/18 08:22:52;;;;;;;8.65;1.55;;;11.10;99.90;;;;;;5073375;28;20028;-77
2022/09/18 08:25:19;;;;;;;9.73;1.88;;;11.00;99.90;;;;;;5061095;28;20116;-78
2022/09/18 08:27:45;;;;;;;8.32;1.67;;;11.00;99.90;;;;;;5071183;28;20040;-77
2022/09/18 08:30:13;;;;;;;10.10;1.40;;;11.00;99.90;;;;;;5051830;28;20036;-77
2022/09/18 08:32:40;;;;;;;11.48;1.90;;;11.20;99.90;;;;;;5047072;28;20068;-77
2022/09/18 08:35:07;;;;;;;11.23;1.48;;;11.20;99.90;;;;;;5071502;28;20048;-77
2022/09/18 08:37:33;;;;;;;13.07;2.00;;;11.20;99.90;;;;;;5065619;28;20089;-77
2022/09/18 08:39:59;;;;;;;7.55;1.30;;;11.10;99.90;;;;;;5071020;28;20021;-77
2022/09/18 08:42:46;;;;;;;9.77;1.60;;;11.00;99.90;;;;;;5071601;28;20070;-78
2022/09/18 08:45:17;;;;;;;16.60;2.55;;;11.00;99.90;;;;;;5065166;28;20020;-77
2022/09/18 08:47:48;;;;;;;7.63;2.03;;;11.00;99.90;;;;;;5069422;28;20124;-77
2022/09/18 08:50:17;;;;;;;12.75;2.33;;;11.10;99.90;;;;;;5071051;28;20020;-77
2022/09/18 08:52:47;;;;;;;9.32;1.52;;;11.20;99.90;;;;;;5046206;28;20036;-76
2022/09/18 08:55:30;;;;;;;4.57;1.10;;;11.30;99.90;;;;;;5072526;28;20468;-77
2022/09/18 08:58:01;;;;;;;7.45;1.65;;;11.60;99.90;;;;;;5071729;28;20055;-76
2022/09/18 09:00:34;;;;;;;12.82;2.13;;;11.80;99.90;;;;;;5049074;28;20036;-78
2022/09/18 09:03:23;;;;;;;10.00;1.83;;;11.90;99.90;;;;;;5070435;28;20529;-77
2022/09/18 09:06:00;;;;;;;8.52;2.40;;;11.70;99.90;;;;;;5056542;28;20170;-79
2022/09/18 09:08:50;;;;;;;7.28;1.27;;;11.60;99.90;;;;;;5066343;28;20054;-78
2022/09/18 09:11:28;;;;;;;7.47;1.40;;;11.40;99.90;;;;;;5043785;28;20243;-78
2022/09/18 09:14:13;;;;;;;12.13;2.55;;;11.40;99.90;;;;;;5047220;28;20028;-77
2022/09/18 09:16:48;;;;;;;1999.90;966.05;;;11.20;99.90;;;;;;5047190;28;20048;-77
2022/09/18 09:19:25;;;;;;;26.90;17.25;;;11.30;99.90;;;;;;5066337;28;20024;-77
2022/09/18 09:22:00;;;;;;;324.10;207.77;;;11.30;99.90;;;;;;5070197;28;20043;-77
2022/09/18 09:24:34;;;;;;;1281.80;749.03;;;11.30;99.90;;;;;;5064907;28;20040;-78
2022/09/18 09:27:12;;;;;;;20.60;10.35;;;11.40;99.90;;;;;;5050125;28;20508;-78
2022/09/18 09:29:42;;;;;;;8.38;1.88;;;11.50;99.90;;;;;;5052801;28;20032;-80
2022/09/18 09:32:54;;;;;;;9.07;1.40;;;11.60;99.90;;;;;;5073354;28;20028;-78
2022/09/18 09:35:30;;;;;;;7.10;1.52;;;11.70;99.90;;;;;;5042551;28;20037;-78
2022/09/18 09:38:03;;;;;;;6.15;1.30;;;11.80;99.90;;;;;;5069689;28;20024;-79
2022/09/18 09:40:47;;;;;;;6.15;1.40;;;11.80;99.90;;;;;;5047001;28;20100;-79
2022/09/18 09:43:33;;;;;;;8.65;1.67;;;11.70;99.90;;;;;;5045349;28;20025;-79
2022/09/18 09:46:10;;;;;;;7.47;1.85;;;11.60;99.90;;;;;;5048976;28;20524;-78
2022/09/18 09:48:54;;;;;;;13.55;2.10;;;11.50;99.90;;;;;;5074676;28;20336;-77
2022/09/18 09:51:35;;;;;;;8.23;1.88;;;11.60;99.90;;;;;;5069084;28;20129;-78
2022/09/18 09:54:01;;;;;;;6.28;1.63;;;11.50;99.90;;;;;;5071591;28;20497;-78
2022/09/18 09:56:43;;;;;;;9.43;2.38;;;11.60;99.90;;;;;;5047334;28;20405;-77
2022/09/18 09:59:37;;;;;;;8.57;1.70;;;11.60;99.90;;;;;;5058023;28;20028;-78
2022/09/18 10:02:41;;;;;;;6.25;1.77;;;11.60;99.90;;;;;;5054020;28;20052;-79
2022/09/18 10:05:28;;;;;;;4.55;1.10;;;11.50;99.90;;;;;;5052816;28;20048;-80
2022/09/18 10:08:01;;;;;;;9.65;1.55;;;11.30;99.90;;;;;;5049328;28;20102;-78
2022/09/18 10:10:41;;;;;;;6.70;1.55;;;11.20;99.90;;;;;;5049405;28;20082;-77
2022/09/18 10:13:32;;;;;;;4.82;1.35;;;11.20;99.90;;;;;;5062664;28;20051;-77
2022/09/18 10:16:07;;;;;;;7.78;1.52;;;11.20;99.90;;;;;;5067955;28;20031;-77
2022/09/18 10:18:38;;;;;;;6.93;1.58;;;11.20;99.90;;;;;;5068159;28;20108;-79
2022/09/18 10:21:12;;;;;;;5.50;1.70;;;11.30;99.90;;;;;;5047832;28;20025;-78
2022/09/18 10:23:41;;;;;;;7.93;1.60;;;11.40;99.90;;;;;;5044525;28;20090;-78
2022/09/18 10:26:14;;;;;;;6.75;1.58;;;11.50;99.90;;;;;;5066846;28;20039;-77
2022/09/18 10:28:41;;;;;;;6.80;1.40;;;11.60;99.90;;;;;;5058613;28;20054;-78
2022/09/18 10:31:12;;;;;;;6.57;1.23;;;11.70;99.90;;;;;;5048465;28;20035;-78
2022/09/18 10:33:40;;;;;;;4.73;1.70;;;11.90;99.90;;;;;;5044851;28;20441;-78
2022/09/18 10:36:29;;;;;;;8.60;1.50;;;12.10;99.90;;;;;;5081130;28;20024;-80
2022/09/18 10:38:56;;;;;;;6.25;1.27;;;12.30;99.90;;;;;;5082181;28;20206;-78
2022/09/18 10:41:34;;;;;;;9.15;1.40;;;12.50;99.90;;;;;;5044944;28;20029;-78
2022/09/18 10:44:03;;;;;;;8.43;1.92;;;12.50;99.90;;;;;;5071169;28;20077;-77
2022/09/18 10:46:32;;;;;;;8.68;1.55;;;12.40;99.90;;;;;;5050031;28;20032;-78
2022/09/18 10:49:01;;;;;;;10.63;2.03;;;12.30;99.90;;;;;;5052681;28;20039;-78
2022/09/18 10:51:28;;;;;;;8.43;1.75;;;12.10;99.90;;;;;;5069562;28;20485;-77
2022/09/18 10:54:13;;;;;;;9.27;1.50;;;11.80;99.90;;;;;;5068130;28;20476;-77
2022/09/18 10:56:39;;;;;;;6.78;1.40;;;11.60;99.90;;;;;;5054373;28;20028;-77
2022/09/18 10:59:28;;;;;;;8.93;1.48;;;11.40;99.90;;;;;;5049739;28;20112;-78
2022/09/18 11:01:59;;;;;;;6.05;0.98;;;12.00;99.90;;;;;;5056817;28;20116;-78
2022/09/18 11:04:26;;;;;;;5.65;0.98;;;13.40;99.90;;;;;;5083931;28;20024;-78
2022/09/18 11:06:52;;;;;;;3.55;1.25;;;14.70;99.90;;;;;;5069518;28;20083;-79
2022/09/18 11:09:26;;;;;;;3.38;1.40;;;15.50;99.90;;;;;;5048519;28;20032;-78
2022/09/18 11:11:52;;;;;;;4.88;0.90;;;16.50;99.90;;;;;;5052855;28;20033;-79
2022/09/18 11:14:40;;;;;;;3.08;0.95;;;18.10;99.90;;;;;;5070692;28;20449;-79
2022/09/18 11:17:20;;;;;;;2.22;0.70;;;19.20;99.90;;;;;;5067555;28;20483;-80
2022/09/18 11:19:53;;;;;;;2.70;0.90;;;19.10;98.80;;;;;;5050663;28;20089;-80
2022/09/18 11:22:43;;;;;;;4.35;0.98;;;18.80;99.90;;;;;;5069519;28;20028;-80
2022/09/18 11:25:18;;;;;;;5.07;0.93;;;18.50;99.20;;;;;;5062424;28;20032;-80
2022/09/18 11:27:49;;;;;;;2.28;0.68;;;18.10;98.50;;;;;;5068667;28;20048;-80
2022/09/18 11:30:29;;;;;;;3.38;1.17;;;17.80;99.30;;;;;;5070669;28;20021;-80
2022/09/18 11:33:29;;;;;;;3.10;1.07;;;17.70;99.70;;;;;;5071095;28;20029;-80
2022/09/18 11:36:07;;;;;;;3.47;0.93;;;17.20;99.70;;;;;;5055936;28;20089;-79
2022/09/18 11:38:39;;;;;;;3.25;1.00;;;16.40;99.90;;;;;;5051827;28;20082;-79
2022/09/18 11:41:05;;;;;;;3.40;0.82;;;16.30;99.90;;;;;;5072458;28;20092;-79
2022/09/18 11:43:36;;;;;;;3.17;0.70;;;16.10;99.50;;;;;;5072751;28;20036;-79
2022/09/18 11:46:19;;;;;;;3.92;0.80;;;15.90;99.20;;;;;;5064096;28;20518;-80
2022/09/18 11:48:55;;;;;;;4.72;1.10;;;15.90;99.90;;;;;;5065061;28;20025;-79
2022/09/18 11:51:27;;;;;;;3.70;1.02;;;15.90;97.90;;;;;;5071017;28;20458;-79
2022/09/18 11:54:01;;;;;;;4.20;0.90;;;15.50;99.70;;;;;;5053225;28;20368;-79
2022/09/18 11:56:36;;;;;;;3.85;1.00;;;15.30;99.90;;;;;;5055215;28;20689;-77
2022/09/18 11:59:17;;;;;;;8.00;1.17;;;15.00;99.90;;;;;;5055704;28;20036;-77
2022/09/18 12:01:47;;;;;;;8.52;1.63;;;14.60;99.90;;;;;;5072293;28;20071;-77
2022/09/18 12:04:35;;;;;;;8.80;1.83;;;13.90;99.90;;;;;;5071989;28;20047;-77
2022/09/18 12:07:19;;;;;;;18.05;1.83;;;13.60;99.90;;;;;;5064940;28;20055;-77
2022/09/18 12:10:07;;;;;;;12.32;2.22;;;13.20;99.90;;;;;;5085006;28;20535;-77
2022/09/18 12:12:43;;;;;;;8.10;1.60;;;13.10;99.90;;;;;;5068059;28;20032;-77
2022/09/18 12:15:18;;;;;;;9.65;1.90;;;13.10;99.90;;;;;;5072000;28;20569;-78
2022/09/18 12:17:56;;;;;;;8.50;1.40;;;13.20;99.90;;;;;;5050847;28;20377;-78
2022/09/18 12:20:31;;;;;;;8.60;1.65;;;13.60;99.90;;;;;;5070176;28;20020;-77
2022/09/18 12:22:59;;;;;;;8.77;1.67;;;13.90;99.90;;;;;;5067830;28;20023;-77
2022/09/18 12:26:04;;;;;;;8.55;1.75;;;14.40;99.90;;;;;;5069859;28;20412;-78
2022/09/18 12:28:50;;;;;;;6.70;1.25;;;14.70;99.90;;;;;;5077257;28;20029;-77
2022/09/18 12:31:28;;;;;;;7.70;1.67;;;14.40;99.90;;;;;;5077262;28;20029;-78
2022/09/18 12:34:10;;;;;;;7.43;1.90;;;14.10;99.90;;;;;;5069276;28;20059;-78
2022/09/18 12:36:54;;;;;;;;;;;14.00;99.90;;;;;;5049724;28;20036;-78
2022/09/18 12:39:23;;;;;;;9.20;2.40;;;13.80;99.90;;;;;;5054018;28;20415;-78
2022/09/18 12:42:01;;;;;;;9.88;2.40;;;13.50;99.90;;;;;;5070838;28;20073;-78
2022/09/18 12:44:39;;;;;;;13.57;3.30;;;13.40;99.90;;;;;;5084003;28;20417;-78
2022/09/18 12:47:24;;;;;;;7.50;2.22;;;13.30;99.90;;;;;;5086786;28;20033;-77
2022/09/18 12:49:57;;;;;;;11.68;1.75;;;13.30;99.90;;;;;;5083299;28;20507;-78
2022/09/18 12:52:32;;;;;;;6.30;1.67;;;13.30;99.90;;;;;;5068533;28;20136;-78
2022/09/18 12:55:21;;;;;;;8.20;1.60;;;13.40;99.90;;;;;;5052300;28;20032;-78
2022/09/18 12:58:12;;;;;;;8.07;1.48;;;13.40;99.90;;;;;;5069296;28;20033;-77
2022/09/18 13:00:39;;;;;;;;;;;13.40;99.90;;;;;;5086919;28;20484;-78
2022/09/18 13:03:20;;;;;;;9.30;1.30;;;13.10;99.90;;;;;;5071123;28;19916;-77
2022/09/18 13:05:59;;;;;;;8.23;1.58;;;12.90;99.90;;;;;;5066159;28;20033;-76